Stolt Capability — ELSN9 — position and weather

sailwx.info

Track history (hours):
 
Tides and Currents Weather Stations Pressure Air Temp Water Temp Dewpoint Dewpoint Depression Visibility Wind Speed Wind Dir Waves Ship Positions

Stolt Capability

Last reported at 2018-Feb-19 13:56 UTC. Time now 2018-Feb-19 14:22 UTC.
Position N 29°19' W 094°35'.

Length 176 m; draft 8.7 m.

Type: Ship (hazmat cat B). MMSI: 636010380.

Date/timePositionNaut miles runAvg speedWind from/ knotsBaromVisibWave heightAir tempDewpointWater temp
2018-Feb-19 13:56N 29°19' W 094°35'0 0.0
2018-Feb-19 11:08N 29°19' W 094°35'0 0.0
2018-Feb-19 10:59N 29°19' W 094°35'0 0.0
2018-Feb-19 10:26N 29°19' W 094°35'0 0.0
2018-Feb-19 09:41N 29°19' W 094°35'0 0.0
2018-Feb-19 09:23N 29°19' W 094°35'0 0.0
2018-Feb-19 08:59N 29°19' W 094°35'0 0.0
2018-Feb-19 08:23N 29°19' W 094°35'0 0.0
2018-Feb-19 07:59N 29°19' W 094°35'0 0.0
2018-Feb-19 07:29N 29°19' W 094°35'0 0.0
2018-Feb-19 06:53N 29°19' W 094°35'0 0.0
2018-Feb-19 06:23N 29°19' W 094°35'0 0.0
2018-Feb-19 05:44N 29°19' W 094°35'0 0.0
2018-Feb-19 05:29N 29°19' W 094°35'0 0.0
2018-Feb-19 04:56N 29°19' W 094°35'0 0.0
2018-Feb-19 04:20N 29°19' W 094°35'0 0.1
2018-Feb-19 03:53N 29°19' W 094°35'0 0.0
2018-Feb-19 03:26N 29°19' W 094°35'0 0.0
2018-Feb-18 02:38N 29°19' W 094°35'0 0.0
2018-Feb-18 02:26N 29°19' W 094°35'0 0.0
2018-Feb-17 22:29N 29°19' W 094°35'0 0.1
2018-Feb-17 21:59N 29°19' W 094°35'0 0.0
2018-Feb-17 09:56N 29°19' W 094°35'0 0.0
2018-Feb-17 09:20N 29°19' W 094°35'0 0.0
2018-Feb-17 08:59N 29°19' W 094°35'0 0.0
2018-Feb-17 07:20N 29°19' W 094°35'0 0.0
2018-Feb-17 06:23N 29°19' W 094°35'0 0.1
2018-Feb-17 05:59N 29°19' W 094°35'0 0.0
2018-Feb-17 04:23N 29°19' W 094°35'0 0.0
2018-Feb-17 03:59N 29°19' W 094°35'0 0.0
2018-Feb-17 03:29N 29°19' W 094°35'0 0.0
2018-Feb-17 02:50N 29°19' W 094°35'0 0.0
2018-Feb-17 02:17N 29°19' W 094°35'0 0.0
2018-Feb-17 01:56N 29°19' W 094°35'0 0.0
2018-Feb-17 01:20N 29°19' W 094°35'0 0.0
2018-Feb-17 00:26N 29°19' W 094°35'0 0.2
2018-Feb-16 23:44N 29°19' W 094°35'0 0.1
2018-Feb-16 23:23N 29°19' W 094°35'0 0.0
2018-Feb-16 08:17N 29°19' W 094°35'0 0.0
2018-Feb-16 06:23N 29°19' W 094°35'0 0.0
2018-Feb-16 03:17N 29°19' W 094°35'0 0.0
2018-Feb-16 02:44N 29°19' W 094°35'0 0.0
2018-Feb-16 02:29N 29°19' W 094°35'0 0.0
2018-Feb-16 01:59N 29°19' W 094°35'0 0.0
2018-Feb-16 00:38N 29°19' W 094°35'0 0.0
2018-Feb-15 09:32N 29°19' W 094°35'0 0.0
2018-Feb-15 09:26N 29°19' W 094°35'0 0.0
2018-Feb-15 05:59N 29°19' W 094°35'0 0.0
2018-Feb-15 05:20N 29°19' W 094°35'0 0.0
2018-Feb-14 16:56N 29°19' W 094°35'0 0.0
2018-Feb-14 16:29N 29°19' W 094°35'0 0.0
2018-Feb-14 15:59N 29°19' W 094°35'0 0.0
2018-Feb-14 03:47N 29°19' W 094°35'0 0.0
2018-Feb-13 23:32N 29°19' W 094°35'26 1.2
2018-Feb-13 02:08N 29°37' W 094°57'110.2
2018-Feb-13 02:01N 29°38' W 094°58'510.2
2018-Feb-13 01:30N 29°42' W 095°01'5 0.2
2018-Feb-11 22:35N 29°45' W 095°06'1 5.2
2018-Feb-11 22:20N 29°45' W 095°04'2 7.0
2018-Feb-11 22:00N 29°44' W 095°02'4 7.9
2018-Feb-11 21:30N 29°41' W 094°59'611.4
2018-Feb-11 21:01N 29°36' W 094°57'713.3
2018-Feb-11 20:30N 29°30' W 094°52'  
Track history (hours):
 
Tides and Currents Weather Stations Pressure Air Temp Water Temp Dewpoint Dewpoint Depression Visibility Wind Speed Wind Dir Waves Ship Positions

Stolt Capability

Last reported at 2018-Feb-19 13:56 UTC. Time now 2018-Feb-19 14:22 UTC.
Position N 29°19' W 094°35'.

Length 176 m; draft 8.7 m.

Type: Ship (hazmat cat B). MMSI: 636010380.

Date/timePositionNaut miles runAvg speedWind from/ knotsBaromVisibWave heightAir tempDewpointWater temp
2018-Feb-19 13:56N 29°19' W 094°35'0 0.0
2018-Feb-19 11:08N 29°19' W 094°35'0 0.0
2018-Feb-19 10:59N 29°19' W 094°35'0 0.0
2018-Feb-19 10:26N 29°19' W 094°35'0 0.0
2018-Feb-19 09:41N 29°19' W 094°35'0 0.0
2018-Feb-19 09:23N 29°19' W 094°35'0 0.0
2018-Feb-19 08:59N 29°19' W 094°35'0 0.0
2018-Feb-19 08:23N 29°19' W 094°35'0 0.0
2018-Feb-19 07:59N 29°19' W 094°35'0 0.0
2018-Feb-19 07:29N 29°19' W 094°35'0 0.0
2018-Feb-19 06:53N 29°19' W 094°35'0 0.0
2018-Feb-19 06:23N 29°19' W 094°35'0 0.0
2018-Feb-19 05:44N 29°19' W 094°35'0 0.0
2018-Feb-19 05:29N 29°19' W 094°35'0 0.0
2018-Feb-19 04:56N 29°19' W 094°35'0 0.0
2018-Feb-19 04:20N 29°19' W 094°35'0 0.1
2018-Feb-19 03:53N 29°19' W 094°35'0 0.0
2018-Feb-19 03:26N 29°19' W 094°35'0 0.0
2018-Feb-18 02:38N 29°19' W 094°35'0 0.0
2018-Feb-18 02:26N 29°19' W 094°35'0 0.0
2018-Feb-17 22:29N 29°19' W 094°35'0 0.1
2018-Feb-17 21:59N 29°19' W 094°35'0 0.0
2018-Feb-17 09:56N 29°19' W 094°35'0 0.0
2018-Feb-17 09:20N 29°19' W 094°35'0 0.0
2018-Feb-17 08:59N 29°19' W 094°35'0 0.0
2018-Feb-17 07:20N 29°19' W 094°35'0 0.0
2018-Feb-17 06:23N 29°19' W 094°35'0 0.1
2018-Feb-17 05:59N 29°19' W 094°35'0 0.0
2018-Feb-17 04:23N 29°19' W 094°35'0 0.0
2018-Feb-17 03:59N 29°19' W 094°35'0 0.0
2018-Feb-17 03:29N 29°19' W 094°35'0 0.0
2018-Feb-17 02:50N 29°19' W 094°35'0 0.0
2018-Feb-17 02:17N 29°19' W 094°35'0 0.0
2018-Feb-17 01:56N 29°19' W 094°35'0 0.0
2018-Feb-17 01:20N 29°19' W 094°35'0 0.0
2018-Feb-17 00:26N 29°19' W 094°35'0 0.2
2018-Feb-16 23:44N 29°19' W 094°35'0 0.1
2018-Feb-16 23:23N 29°19' W 094°35'0 0.0
2018-Feb-16 08:17N 29°19' W 094°35'0 0.0
2018-Feb-16 06:23N 29°19' W 094°35'0 0.0
2018-Feb-16 03:17N 29°19' W 094°35'0 0.0
2018-Feb-16 02:44N 29°19' W 094°35'0 0.0
2018-Feb-16 02:29N 29°19' W 094°35'0 0.0
2018-Feb-16 01:59N 29°19' W 094°35'0 0.0
2018-Feb-16 00:38N 29°19' W 094°35'0 0.0
2018-Feb-15 09:32N 29°19' W 094°35'0 0.0
2018-Feb-15 09:26N 29°19' W 094°35'0 0.0
2018-Feb-15 05:59N 29°19' W 094°35'0 0.0
2018-Feb-15 05:20N 29°19' W 094°35'0 0.0
2018-Feb-14 16:56N 29°19' W 094°35'0 0.0
2018-Feb-14 16:29N 29°19' W 094°35'0 0.0
2018-Feb-14 15:59N 29°19' W 094°35'0 0.0
2018-Feb-14 03:47N 29°19' W 094°35'0 0.0
2018-Feb-13 23:32N 29°19' W 094°35'26 1.2
2018-Feb-13 02:08N 29°37' W 094°57'110.2
2018-Feb-13 02:01N 29°38' W 094°58'510.2
2018-Feb-13 01:30N 29°42' W 095°01'5 0.2
2018-Feb-11 22:35N 29°45' W 095°06'1 5.2
2018-Feb-11 22:20N 29°45' W 095°04'2 7.0
2018-Feb-11 22:00N 29°44' W 095°02'4 7.9
2018-Feb-11 21:30N 29°41' W 094°59'611.4
2018-Feb-11 21:01N 29°36' W 094°57'713.3
2018-Feb-11 20:30N 29°30' W 094°52'  

Dump ship's entire track history